Time;durP1;ratioP1;P1;durP2;ratioP2;P2;SDS_P1;SDS_P2;PMS_P1;PMS_P2;Temp;Humidity;BMP_temperature;BMP_pressure;BME280_temperature;BME280_humidity;BME280_pressure;Samples;Min_cycle;Max_cycle;Signal;HPM_P1;HPM_P2
2022/01/03 00:01:51;;;;;;;;;;;;;;;;;;5054072;28;20320;-73
2022/01/03 00:04:18;;;;;;;;;;;;;;;;;;5053755;28;20561;-73
2022/01/03 00:06:45;;;;;;;;;;;;;;;;;;5053853;28;20293;-74
2022/01/03 00:09:12;;;;;;;;;;;;;;;;;;5053442;28;20294;-74
2022/01/03 00:11:40;;;;;;;;;;;;;;;;;;5053213;28;20418;-73
2022/01/03 00:14:06;;;;;;;;;;;;;;;;;;5052694;28;20453;-73
2022/01/03 00:16:33;;;;;;;;;;;;;;;;;;5053669;28;19925;-74
2022/01/03 00:19:00;;;;;;;;;;;;;;;;;;5048442;28;20378;-74
2022/01/03 00:21:29;;;;;;;;;;;;;;;;;;5053124;28;20413;-73
2022/01/03 00:23:56;;;;;;;;;;;;;;;;;;5053309;28;19931;-74
2022/01/03 00:26:23;;;;;;;;;;;;;;;;;;5053352;28;19928;-73
2022/01/03 00:28:49;;;;;;;;;;;;;;;;;;5053001;28;19939;-73
2022/01/03 00:31:16;;;;;;;;;;;;;;;;;;5052692;28;19931;-73
2022/01/03 00:33:43;;;;;;;;;;;;;;;;;;5053123;28;19925;-73
2022/01/03 00:36:10;;;;;;;;;;;;;;;;;;5053067;28;19925;-74
2022/01/03 00:38:37;;;;;;;;;;;;;;;;;;5053036;28;19925;-73
2022/01/03 00:41:04;;;;;;;;;;;;;;;;;;5047905;28;19925;-74
2022/01/03 00:43:32;;;;;;;;;;;;;;;;;;5053318;28;19924;-73
2022/01/03 00:45:59;;;;;;;;;;;;;;;;;;5052704;28;19925;-74
2022/01/03 00:48:26;;;;;;;;;;;;;;;;;;5053137;28;20371;-74
2022/01/03 00:50:53;;;;;;;;;;;;;;;;;;5052671;28;19983;-74
2022/01/03 00:53:20;;;;;;;;;;;;;;;;;;5052909;28;19935;-74
2022/01/03 00:55:47;;;;;;;;;;;;;;;;;;5052880;28;19925;-74
2022/01/03 00:58:14;;;;;;;;;;;;;;;;;;5053226;28;19925;-72
2022/01/03 01:00:40;;;;;;;;;;;;;;;;;;5053170;28;19932;-73
2022/01/03 01:03:10;;;;;;;;;;;;;;;;;;5051593;28;20272;-74
2022/01/03 01:05:37;;;;;;;;;;;;;;;;;;5052418;28;19931;-73
2022/01/03 01:08:04;;;;;;;;;;;;;;;;;;5052336;28;19925;-73
2022/01/03 01:10:31;;;;;;;;;;;;;;;;;;5051890;28;20004;-74
2022/01/03 01:12:58;;;;;;;;;;;;;;;;;;5052381;28;19924;-74
2022/01/03 01:15:25;;;;;;;;;;;;;;;;;;5052613;28;19925;-73
2022/01/03 01:17:51;;;;;;;;;;;;;;;;;;5052376;28;19931;-73
2022/01/03 01:20:20;;;;;;;;;;;;;;;;;;5051663;28;19925;-73
2022/01/03 01:22:47;;;;;;;;;;;;;;;;;;5052563;28;20294;-73
2022/01/03 01:27:45;;;;;;;;;;;;;;;;;;5052355;28;20293;-74
2022/01/03 01:28:11;;;;;;;;;;;;;;;;;;5051615;28;20042;-73
2022/01/03 01:30:38;;;;;;;;;;;;;;;;;;5052171;28;19921;-73
2022/01/03 01:33:05;;;;;;;;;;;;;;;;;;5051737;28;19925;-73
2022/01/03 01:35:31;;;;;;;;;;;;;;;;;;5052204;28;19931;-73
2022/01/03 01:37:58;;;;;;;;;;;;;;;;;;5051727;28;19929;-73
2022/01/03 01:40:25;;;;;;;;;;;;;;;;;;5051672;28;19931;-73
2022/01/03 01:42:52;;;;;;;;;;;;;;;;;;5052041;28;19947;-73
2022/01/03 01:45:20;;;;;;;;;;;;;;;;;;5051712;28;20321;-72
2022/01/03 01:47:47;;;;;;;;;;;;;;;;;;5051410;28;20019;-73
2022/01/03 01:50:14;;;;;;;;;;;;;;;;;;5051314;28;19925;-73
2022/01/03 01:52:41;;;;;;;;;;;;;;;;;;5052201;28;19925;-72
2022/01/03 01:55:08;;;;;;;;;;;;;;;;;;5051650;28;19948;-73
2022/01/03 01:57:34;;;;;;;;;;;;;;;;;;5051384;28;19932;-73
2022/01/03 02:00:02;;;;;;;;;;;;;;;;;;5051339;28;19925;-73
2022/01/03 02:02:29;;;;;;;;;;;;;;;;;;5051921;28;20473;-73
2022/01/03 02:04:56;;;;;;;;;;;;;;;;;;5051633;28;20205;-73
2022/01/03 02:07:23;;;;;;;;;;;;;;;;;;5051376;28;19932;-73
2022/01/03 02:09:50;;;;;;;;;;;;;;;;;;5051289;28;20023;-73
2022/01/03 02:12:17;;;;;;;;;;;;;;;;;;5050863;28;19925;-73
2022/01/03 02:14:44;;;;;;;;;;;;;;;;;;5051141;28;19932;-72
2022/01/03 02:17:11;;;;;;;;;;;;;;;;;;5050913;28;19988;-73
2022/01/03 02:19:38;;;;;;;;;;;;;;;;;;5041316;28;19924;-74
2022/01/03 02:22:05;;;;;;;;;;;;;;;;;;5050915;28;19931;-73
2022/01/03 02:24:32;;;;;;;;;;;;;;;;;;5051422;28;20011;-73
2022/01/03 02:26:59;;;;;;;;;;;;;;;;;;5051016;28;19925;-74
2022/01/03 02:29:26;;;;;;;;;;;;;;;;;;5050940;28;19946;-74
2022/01/03 02:31:54;;;;;;;;;;;;;;;;;;5051068;28;19932;-74
2022/01/03 02:34:21;;;;;;;;;;;;;;;;;;5051118;28;20276;-73
2022/01/03 02:36:48;;;;;;;;;;;;;;;;;;5050879;28;20317;-74
2022/01/03 02:39:15;;;;;;;;;;;;;;;;;;5050879;28;19970;-74
2022/01/03 02:41:42;;;;;;;;;;;;;;;;;;5051385;28;20290;-73
2022/01/03 02:44:09;;;;;;;;;;;;;;;;;;5050754;28;20016;-74
2022/01/03 02:46:36;;;;;;;;;;;;;;;;;;5050544;28;20386;-74
2022/01/03 02:49:05;;;;;;;;;;;;;;;;;;5051048;28;19931;-74
2022/01/03 02:51:32;;;;;;;;;;;;;;;;;;5051089;28;20325;-74
2022/01/03 02:53:59;;;;;;;;;;;;;;;;;;5051178;28;20502;-74
2022/01/03 02:56:26;;;;;;;;;;;;;;;;;;5050306;28;19932;-73
2022/01/03 02:58:53;;;;;;;;;;;;;;;;;;5050865;28;20011;-73
2022/01/03 03:01:20;;;;;;;;;;;;;;;;;;5050472;28;19935;-73
2022/01/03 03:03:50;;;;;;;;;;;;;;;;;;5051099;28;19931;-73
2022/01/03 03:06:17;;;;;;;;;;;;;;;;;;5050327;28;19932;-73
2022/01/03 03:08:44;;;;;;;;;;;;;;;;;;5050756;28;19929;-73
2022/01/03 03:11:11;;;;;;;;;;;;;;;;;;5050265;28;19925;-74
2022/01/03 03:13:38;;;;;;;;;;;;;;;;;;5050667;28;19925;-75
2022/01/03 03:16:05;;;;;;;;;;;;;;;;;;5050726;28;19947;-73
2022/01/03 03:18:32;;;;;;;;;;;;;;;;;;5050733;28;19924;-73
2022/01/03 03:20:59;;;;;;;;;;;;;;;;;;5050394;28;20008;-73
2022/01/03 03:23:27;;;;;;;;;;;;;;;;;;5050520;28;19925;-74
2022/01/03 03:25:54;;;;;;;;;;;;;;;;;;5049641;28;20284;-73
2022/01/03 03:28:24;;;;;;;;;;;;;;;;;;5049684;28;20404;-74
2022/01/03 03:30:52;;;;;;;;;;;;;;;;;;5052037;28;19981;-74
2022/01/03 03:33:18;;;;;;;;;;;;;;;;;;5047559;28;19925;-74
2022/01/03 03:35:45;;;;;;;;;;;;;;;;;;5050008;28;20291;-72
2022/01/03 03:38:12;;;;;;;;;;;;;;;;;;5052676;28;19956;-73
2022/01/03 03:40:39;;;;;;;;;;;;;;;;;;5052776;28;20298;-73
2022/01/03 03:43:06;;;;;;;;;;;;;;;;;;5053261;28;19925;-73
2022/01/03 03:45:34;;;;;;;;;;;;;;;;;;5052440;28;19931;-74
2022/01/03 03:48:00;;;;;;;;;;;;;;;;;;5053420;28;19951;-73
2022/01/03 03:50:27;;;;;;;;;;;;;;;;;;5052794;28;19932;-73
2022/01/03 03:52:54;;;;;;;;;;;;;;;;;;5052673;28;20367;-74
2022/01/03 03:55:21;;;;;;;;;;;;;;;;;;5052975;28;19947;-73
2022/01/03 03:57:48;;;;;;;;;;;;;;;;;;5052582;28;19925;-74
2022/01/03 04:00:16;;;;;;;;;;;;;;;;;;5052966;28;19925;-74
2022/01/03 04:02:42;;;;;;;;;;;;;;;;;;5052708;28;19925;-74
2022/01/03 04:05:09;;;;;;;;;;;;;;;;;;5053085;28;19939;-74
2022/01/03 04:07:36;;;;;;;;;;;;;;;;;;5052535;28;19947;-74
2022/01/03 04:10:03;;;;;;;;;;;;;;;;;;5052391;28;19932;-73
2022/01/03 04:12:30;;;;;;;;;;;;;;;;;;5052614;28;19935;-74
2022/01/03 04:14:57;;;;;;;;;;;;;;;;;;5052644;28;19924;-74
2022/01/03 04:17:24;;;;;;;;;;;;;;;;;;5047274;28;19925;-74
2022/01/03 04:19:51;;;;;;;;;;;;;;;;;;5052007;28;19984;-74
2022/01/03 04:22:18;;;;;;;;;;;;;;;;;;5052542;28;19947;-73
2022/01/03 04:24:45;;;;;;;;;;;;;;;;;;4989433;28;1783480;-73
2022/01/03 04:27:12;;;;;;;;;;;;;;;;;;5053182;28;19947;-74
2022/01/03 04:29:39;;;;;;;;;;;;;;;;;;5053553;28;20275;-74
2022/01/03 04:32:06;;;;;;;;;;;;;;;;;;5052806;28;19924;-73
2022/01/03 04:34:33;;;;;;;;;;;;;;;;;;5053421;28;20027;-74
2022/01/03 04:37:00;;;;;;;;;;;;;;;;;;5052642;28;19929;-73
2022/01/03 04:39:27;;;;;;;;;;;;;;;;;;5053386;28;19925;-73
2022/01/03 04:41:54;;;;;;;;;;;;;;;;;;5051656;28;19958;-73
2022/01/03 04:44:21;;;;;;;;;;;;;;;;;;5053036;28;19928;-73
2022/01/03 04:46:48;;;;;;;;;;;;;;;;;;5052786;28;19931;-73
2022/01/03 04:49:15;;;;;;;;;;;;;;;;;;5046615;28;19929;-73
2022/01/03 04:51:42;;;;;;;;;;;;;;;;;;5052617;28;20465;-72
2022/01/03 04:54:08;;;;;;;;;;;;;;;;;;5052720;28;19925;-73
2022/01/03 04:56:35;;;;;;;;;;;;;;;;;;5053151;28;19925;-73
2022/01/03 04:59:02;;;;;;;;;;;;;;;;;;5052833;28;19924;-75
2022/01/03 05:01:29;;;;;;;;;;;;;;;;;;5052125;28;19929;-74
2022/01/03 05:03:56;;;;;;;;;;;;;;;;;;5052550;28;19925;-74
2022/01/03 05:06:23;;;;;;;;;;;;;;;;;;5052131;28;19928;-74
2022/01/03 05:08:50;;;;;;;;;;;;;;;;;;5052367;28;19935;-74
2022/01/03 05:11:17;;;;;;;;;;;;;;;;;;5051980;28;19932;-74
2022/01/03 05:13:44;;;;;;;;;;;;;;;;;;5052373;28;19925;-74
2022/01/03 05:16:11;;;;;;;;;;;;;;;;;;5051639;28;19931;-74
2022/01/03 05:18:38;;;;;;;;;;;;;;;;;;5052301;28;19924;-74
2022/01/03 05:21:05;;;;;;;;;;;;;;;;;;5051714;28;19924;-73
2022/01/03 05:23:32;;;;;;;;;;;;;;;;;;5052893;28;20012;-74
2022/01/03 05:25:59;;;;;;;;;;;;;;;;;;5051809;28;20031;-74
2022/01/03 05:28:26;;;;;;;;;;;;;;;;;;5052191;28;19925;-74
2022/01/03 05:30:53;;;;;;;;;;;;;;;;;;5051722;28;20280;-74
2022/01/03 05:33:20;;;;;;;;;;;;;;;;;;5052052;28;19925;-73
2022/01/03 05:35:47;;;;;;;;;;;;;;;;;;5051608;28;19924;-74
2022/01/03 05:38:14;;;;;;;;;;;;;;;;;;5051635;28;19925;-73
2022/01/03 05:40:41;;;;;;;;;;;;;;;;;;5051777;28;20313;-74
2022/01/03 05:43:09;;;;;;;;;;;;;;;;;;5052319;28;19931;-72
2022/01/03 05:45:36;;;;;;;;;;;;;;;;;;5051549;28;20424;-73
2022/01/03 05:48:03;;;;;;;;;;;;;;;;;;5051610;28;20354;-73
2022/01/03 05:50:30;;;;;;;;;;;;;;;;;;5051279;28;19925;-73
2022/01/03 05:52:57;;;;;;;;;;;;;;;;;;5051290;28;19932;-72
2022/01/03 05:55:24;;;;;;;;;;;;;;;;;;5051018;28;19924;-72
2022/01/03 05:57:51;;;;;;;;;;;;;;;;;;5051679;28;19928;-73
2022/01/03 06:00:19;;;;;;;;;;;;;;;;;;5051452;28;19932;-72
2022/01/03 06:02:46;;;;;;;;;;;;;;;;;;5049969;28;19933;-73
2022/01/03 06:05:20;;;;;;;;;;;;;;;;;;5048804;28;20023;-73
2022/01/03 06:07:47;;;;;;;;;;;;;;;;;;5051578;28;19975;-73
2022/01/03 06:10:14;;;;;;;;;;;;;;;;;;5051251;28;20115;-73
2022/01/03 06:12:42;;;;;;;;;;;;;;;;;;5051437;28;20008;-73
2022/01/03 06:15:09;;;;;;;;;;;;;;;;;;5051383;28;20011;-74
2022/01/03 06:17:36;;;;;;;;;;;;;;;;;;5051259;28;19932;-73
2022/01/03 06:20:03;;;;;;;;;;;;;;;;;;5051282;28;19932;-74
2022/01/03 06:22:30;;;;;;;;;;;;;;;;;;5051301;28;19925;-73
2022/01/03 06:24:57;;;;;;;;;;;;;;;;;;5050942;28;19925;-73
2022/01/03 06:27:23;;;;;;;;;;;;;;;;;;5051231;28;19932;-73
2022/01/03 06:29:50;;;;;;;;;;;;;;;;;;5051323;28;19933;-72
2022/01/03 06:32:17;;;;;;;;;;;;;;;;;;5051109;28;19931;-74
2022/01/03 06:34:44;;;;;;;;;;;;;;;;;;5051181;28;19925;-74
2022/01/03 06:37:11;;;;;;;;;;;;;;;;;;5051567;28;19951;-74
2022/01/03 06:39:38;;;;;;;;;;;;;;;;;;5040292;28;19932;-74
2022/01/03 06:42:05;;;;;;;;;;;;;;;;;;5050758;28;19925;-74
2022/01/03 06:44:32;;;;;;;;;;;;;;;;;;5051107;28;19931;-74
2022/01/03 06:46:59;;;;;;;;;;;;;;;;;;5051410;28;19925;-74
2022/01/03 06:49:26;;;;;;;;;;;;;;;;;;5050893;28;19924;-74
2022/01/03 06:51:53;;;;;;;;;;;;;;;;;;5050468;28;20409;-73
2022/01/03 06:54:20;;;;;;;;;;;;;;;;;;5050466;28;19925;-74
2022/01/03 06:56:47;;;;;;;;;;;;;;;;;;5051168;28;19925;-73
2022/01/03 06:59:14;;;;;;;;;;;;;;;;;;5051009;28;19925;-73
2022/01/03 07:01:40;;;;;;;;;;;;;;;;;;5050544;28;19929;-73
2022/01/03 07:04:07;;;;;;;;;;;;;;;;;;5050629;28;19925;-74
2022/01/03 07:06:36;;;;;;;;;;;;;;;;;;5054537;28;20407;-73
2022/01/03 07:09:05;;;;;;;;;;;;;;;;;;5054743;28;20383;-73
2022/01/03 07:11:32;;;;;;;;;;;;;;;;;;5054481;28;20390;-73
2022/01/03 07:18:55;;;;;;;;;;;;;;;;;;5053822;28;20413;-73
2022/01/03 07:19:35;;;;;;;;;;;;;;;;;;5051865;28;20010;-72
2022/01/03 07:22:04;;;;;;;;;;;;;;;;;;5054237;28;19925;-72
2022/01/03 07:24:31;;;;;;;;;;;;;;;;;;5054318;28;19970;-72
2022/01/03 07:26:58;;;;;;;;;;;;;;;;;;5054767;28;19948;-72
2022/01/03 07:29:25;;;;;;;;;;;;;;;;;;5054025;28;20412;-73
2022/01/03 07:31:52;;;;;;;;;;;;;;;;;;5053623;28;19925;-71
2022/01/03 07:34:19;;;;;;;;;;;;;;;;;;5053928;28;19925;-72
2022/01/03 07:36:46;;;;;;;;;;;;;;;;;;5054304;28;19931;-72
2022/01/03 07:39:13;;;;;;;;;;;;;;;;;;5054403;28;19925;-73
2022/01/03 07:41:40;;;;;;;;;;;;;;;;;;5053422;28;19924;-76
2022/01/03 07:44:07;;;;;;;;;;;;;;;;;;5053822;28;19925;-74
2022/01/03 07:46:34;;;;;;;;;;;;;;;;;;5053889;28;19925;-74
2022/01/03 07:49:01;;;;;;;;;;;;;;;;;;5053878;28;20353;-74
2022/01/03 07:51:28;;;;;;;;;;;;;;;;;;5053586;28;19925;-76
2022/01/03 07:53:55;;;;;;;;;;;;;;;;;;5054166;28;19931;-73
2022/01/03 07:56:22;;;;;;;;;;;;;;;;;;5053961;28;20321;-74
2022/01/03 07:58:49;;;;;;;;;;;;;;;;;;5053667;28;20043;-74
2022/01/03 08:01:16;;;;;;;;;;;;;;;;;;5053428;28;19925;-75
2022/01/03 08:03:43;;;;;;;;;;;;;;;;;;5054158;28;19925;-74
2022/01/03 08:06:10;;;;;;;;;;;;;;;;;;5053776;28;19931;-73
2022/01/03 08:08:37;;;;;;;;;;;;;;;;;;5053910;28;20031;-73
2022/01/03 08:11:04;;;;;;;;;;;;;;;;;;5052859;28;20386;-74
2022/01/03 08:13:31;;;;;;;;;;;;;;;;;;5053495;28;19924;-74
2022/01/03 08:15:57;;;;;;;;;;;;;;;;;;5053655;28;19931;-75
2022/01/03 08:18:24;;;;;;;;;;;;;;;;;;5053720;28;19956;-74
2022/01/03 08:20:53;;;;;;;;;;;;;;;;;;5052917;28;20294;-74
2022/01/03 08:23:20;;;;;;;;;;;;;;;;;;5053619;28;19932;-72
2022/01/03 08:25:47;;;;;;;;;;;;;;;;;;5053202;28;19925;-73
2022/01/03 08:28:14;;;;;;;;;;;;;;;;;;5053865;28;20023;-73
2022/01/03 08:30:41;;;;;;;;;;;;;;;;;;5053087;28;20390;-74
2022/01/03 08:33:08;;;;;;;;;;;;;;;;;;5053167;28;19925;-74
2022/01/03 08:35:35;;;;;;;;;;;;;;;;;;5053207;28;19954;-73
2022/01/03 08:38:04;;;;;;;;;;;;;;;;;;5053225;28;20298;-73
2022/01/03 08:40:31;;;;;;;;;;;;;;;;;;5052763;28;20280;-73
2022/01/03 08:42:58;;;;;;;;;;;;;;;;;;5053230;28;20416;-74
2022/01/03 08:45:25;;;;;;;;;;;;;;;;;;5052870;28;19932;-74
2022/01/03 08:47:52;;;;;;;;;;;;;;;;;;5052877;28;19931;-73
2022/01/03 08:50:19;;;;;;;;;;;;;;;;;;5052268;28;19925;-74
2022/01/03 08:52:46;;;;;;;;;;;;;;;;;;5052816;28;19925;-73
2022/01/03 08:55:12;;;;;;;;;;;;;;;;;;5052992;28;19928;-73
2022/01/03 08:57:41;;;;;;;;;;;;;;;;;;5053045;28;19925;-73
2022/01/03 09:00:07;;;;;;;;;;;;;;;;;;5052202;28;20027;-73
2022/01/03 09:02:34;;;;;;;;;;;;;;;;;;5052630;28;19925;-73
2022/01/03 09:05:01;;;;;;;;;;;;;;;;;;5052337;28;19925;-72
2022/01/03 09:07:28;;;;;;;;;;;;;;;;;;5053001;28;19925;-73
2022/01/03 09:09:55;;;;;;;;;;;;;;;;;;5052306;28;19948;-73
2022/01/03 09:12:22;;;;;;;;;;;;;;;;;;5052341;28;20028;-73
2022/01/03 09:14:49;;;;;;;;;;;;;;;;;;5052496;28;20379;-73
2022/01/03 09:17:16;;;;;;;;;;;;;;;;;;5052350;28;19931;-73
2022/01/03 09:19:43;;;;;;;;;;;;;;;;;;5052261;28;19931;-72
2022/01/03 09:22:15;;;;;;;;;;;;;;;;;;5051262;28;19929;-72
2022/01/03 09:24:52;;;;;;;;;;;;;;;;;;5052379;28;19975;-72
2022/01/03 09:30:03;;;;;;;;;;;;;;;;;;5051221;28;20007;-73
2022/01/03 09:32:30;;;;;;;;;;;;;;;;;;5051810;28;19935;-73
2022/01/03 09:34:58;;;;;;;;;;;;;;;;;;5052092;28;19929;-73
2022/01/03 09:37:25;;;;;;;;;;;;;;;;;;5051911;28;19924;-73
2022/01/03 09:39:52;;;;;;;;;;;;;;;;;;5051510;28;19931;-73
2022/01/03 09:42:19;;;;;;;;;;;;;;;;;;5051881;28;20011;-73
2022/01/03 09:44:46;;;;;;;;;;;;;;;;;;5051474;28;19925;-73
2022/01/03 09:47:13;;;;;;;;;;;;;;;;;;5052183;28;19948;-73
2022/01/03 09:49:40;;;;;;;;;;;;;;;;;;5047572;28;19972;-73
2022/01/03 09:52:07;;;;;;;;;;;;;;;;;;5051607;28;19925;-73
2022/01/03 09:54:34;;;;;;;;;;;;;;;;;;5051794;28;19925;-73
2022/01/03 09:57:01;;;;;;;;;;;;;;;;;;5051756;28;19935;-73
2022/01/03 09:59:28;;;;;;;;;;;;;;;;;;5051417;28;20294;-73
2022/01/03 10:01:55;;;;;;;;;;;;;;;;;;5051478;28;19947;-73
2022/01/03 10:04:22;;;;;;;;;;;;;;;;;;5051844;28;19939;-74
2022/01/03 10:06:49;;;;;;;;;;;;;;;;;;5051548;28;19931;-74
2022/01/03 10:09:16;;;;;;;;;;;;;;;;;;5051656;28;19928;-74
2022/01/03 10:11:43;;;;;;;;;;;;;;;;;;5051075;28;20314;-74
2022/01/03 10:14:11;;;;;;;;;;;;;;;;;;5051307;28;19939;-72
2022/01/03 10:16:38;;;;;;;;;;;;;;;;;;5051068;28;19924;-73
2022/01/03 10:19:05;;;;;;;;;;;;;;;;;;5051100;28;20007;-73
2022/01/03 10:21:32;;;;;;;;;;;;;;;;;;5050978;28;19931;-73
2022/01/03 10:23:59;;;;;;;;;;;;;;;;;;5051368;28;19932;-74
2022/01/03 10:26:26;;;;;;;;;;;;;;;;;;5051373;28;19931;-73
2022/01/03 10:28:53;;;;;;;;;;;;;;;;;;5051356;28;20011;-73
2022/01/03 10:31:20;;;;;;;;;;;;;;;;;;5051332;28;19925;-74
2022/01/03 10:33:47;;;;;;;;;;;;;;;;;;5051238;28;19968;-74
2022/01/03 10:36:14;;;;;;;;;;;;;;;;;;5051116;28;19931;-74
2022/01/03 10:38:43;;;;;;;;;;;;;;;;;;5050467;28;19928;-74
2022/01/03 10:41:11;;;;;;;;;;;;;;;;;;5050928;28;19925;-73
2022/01/03 10:43:38;;;;;;;;;;;;;;;;;;5051358;28;19924;-73
2022/01/03 10:46:04;;;;;;;;;;;;;;;;;;5051047;28;19931;-73
2022/01/03 10:48:31;;;;;;;;;;;;;;;;;;5051125;28;19951;-73
2022/01/03 10:50:59;;;;;;;;;;;;;;;;;;5050855;28;19971;-73
2022/01/03 10:53:26;;;;;;;;;;;;;;;;;;5051120;28;19976;-73
2022/01/03 10:55:53;;;;;;;;;;;;;;;;;;5050757;28;19925;-73
2022/01/03 10:58:20;;;;;;;;;;;;;;;;;;5051217;28;19929;-73
2022/01/03 11:00:47;;;;;;;;;;;;;;;;;;5050622;28;19931;-73
2022/01/03 11:03:25;;;;;;;;;;;;;;;;;;5048673;28;19931;-73
2022/01/03 11:05:54;;;;;;;;;;;;;;;;;;5050977;28;20185;-72
2022/01/03 11:11:06;;;;;;;;;;;;;;;;;;5050896;28;19919;-73
2022/01/03 11:13:33;;;;;;;;;;;;;;;;;;5050829;28;19946;-72
2022/01/03 11:16:00;;;;;;;;;;;;;;;;;;5050631;28;19925;-73
2022/01/03 11:18:27;;;;;;;;;;;;;;;;;;5050527;28;19936;-72
2022/01/03 11:20:54;;;;;;;;;;;;;;;;;;5050755;28;19929;-72
2022/01/03 11:23:21;;;;;;;;;;;;;;;;;;5050652;28;20011;-73
2022/01/03 11:25:49;;;;;;;;;;;;;;;;;;5050280;28;19925;-73
2022/01/03 11:28:16;;;;;;;;;;;;;;;;;;5050730;28;19931;-73
2022/01/03 11:30:43;;;;;;;;;;;;;;;;;;5050323;28;19925;-73
2022/01/03 11:33:10;;;;;;;;;;;;;;;;;;5050257;28;19925;-73
2022/01/03 11:35:37;;;;;;;;;;;;;;;;;;5050111;28;20023;-73
2022/01/03 11:38:04;;;;;;;;;;;;;;;;;;5050920;28;19940;-73
2022/01/03 11:40:31;;;;;;;;;;;;;;;;;;5050149;28;20398;-73
2022/01/03 11:42:58;;;;;;;;;;;;;;;;;;5050609;28;20389;-73
2022/01/03 11:45:25;;;;;;;;;;;;;;;;;;5050254;28;19932;-73
2022/01/03 11:47:52;;;;;;;;;;;;;;;;;;5050520;28;20260;-73
2022/01/03 11:50:19;;;;;;;;;;;;;;;;;;5050962;28;19925;-73
2022/01/03 11:52:46;;;;;;;;;;;;;;;;;;5053953;28;20429;-73
2022/01/03 11:55:13;;;;;;;;;;;;;;;;;;5053832;28;19925;-73
2022/01/03 11:57:46;;;;;;;;;;;;;;;;;;5054171;28;19931;-73
2022/01/03 12:05:42;;;;;;;;;;;;;;;;;;5051075;28;19920;-73
2022/01/03 12:08:09;;;;;;;;;;;;;;;;;;5053917;28;19925;-73
2022/01/03 12:10:36;;;;;;;;;;;;;;;;;;5053730;28;20024;-73
2022/01/03 12:13:03;;;;;;;;;;;;;;;;;;5053664;28;19928;-73
2022/01/03 12:15:30;;;;;;;;;;;;;;;;;;5053967;28;19925;-73
2022/01/03 12:17:58;;;;;;;;;;;;;;;;;;5053178;28;19984;-73
2022/01/03 12:20:25;;;;;;;;;;;;;;;;;;5053440;28;20409;-72
2022/01/03 12:22:52;;;;;;;;;;;;;;;;;;5053352;28;20408;-73
2022/01/03 12:25:19;;;;;;;;;;;;;;;;;;5053075;28;19950;-73
2022/01/03 12:27:46;;;;;;;;;;;;;;;;;;5053563;28;19925;-74
2022/01/03 12:30:13;;;;;;;;;;;;;;;;;;5053173;28;20003;-73
2022/01/03 12:32:41;;;;;;;;;;;;;;;;;;5053385;28;19983;-74
2022/01/03 12:35:08;;;;;;;;;;;;;;;;;;5053420;28;20314;-74
2022/01/03 12:37:35;;;;;;;;;;;;;;;;;;5042844;28;20427;-74
2022/01/03 12:40:02;;;;;;;;;;;;;;;;;;5053343;28;20016;-74
2022/01/03 12:42:29;;;;;;;;;;;;;;;;;;5052899;28;20024;-72
2022/01/03 12:44:57;;;;;;;;;;;;;;;;;;5053034;28;20449;-73
2022/01/03 12:47:24;;;;;;;;;;;;;;;;;;5052981;28;19925;-72
2022/01/03 12:49:51;;;;;;;;;;;;;;;;;;5052899;28;20416;-73
2022/01/03 12:52:18;;;;;;;;;;;;;;;;;;5052132;28;19931;-73
2022/01/03 12:54:45;;;;;;;;;;;;;;;;;;5052689;28;19929;-73
2022/01/03 12:57:12;;;;;;;;;;;;;;;;;;5052779;28;19995;-73
2022/01/03 12:59:39;;;;;;;;;;;;;;;;;;5052401;28;19925;-73
2022/01/03 13:02:06;;;;;;;;;;;;;;;;;;5051094;28;19925;-73
2022/01/03 13:04:33;;;;;;;;;;;;;;;;;;5052515;28;19924;-72
2022/01/03 13:07:00;;;;;;;;;;;;;;;;;;5052734;28;19925;-72
2022/01/03 13:09:27;;;;;;;;;;;;;;;;;;5052056;28;20386;-72
2022/01/03 13:11:56;;;;;;;;;;;;;;;;;;5051607;28;19925;-73
2022/01/03 13:14:23;;;;;;;;;;;;;;;;;;5052004;28;19979;-72
2022/01/03 13:16:51;;;;;;;;;;;;;;;;;;5052490;28;19931;-72
2022/01/03 13:19:18;;;;;;;;;;;;;;;;;;5052707;28;19984;-73
2022/01/03 13:21:45;;;;;;;;;;;;;;;;;;5051594;28;20401;-73
2022/01/03 13:24:12;;;;;;;;;;;;;;;;;;5052548;28;20355;-74
2022/01/03 13:26:39;;;;;;;;;;;;;;;;;;5050493;28;20302;-73
2022/01/03 13:29:06;;;;;;;;;;;;;;;;;;5045355;28;19933;-72
2022/01/03 13:31:33;;;;;;;;;;;;;;;;;;5041030;28;20301;-72
2022/01/03 13:34:00;;;;;;;;;;;;;;;;;;5048403;28;20298;-73
2022/01/03 13:36:27;;;;;;;;;;;;;;;;;;5049038;28;19924;-72
2022/01/03 13:38:54;;;;;;;;;;;;;;;;;;5049633;28;19925;-73
2022/01/03 13:41:21;;;;;;;;;;;;;;;;;;5051296;28;20107;-73
2022/01/03 13:43:51;;;;;;;;;;;;;;;;;;5048415;28;19945;-73
2022/01/03 13:49:12;;;;;;;;;;;;;;;;;;5048191;28;19928;-74
2022/01/03 13:51:39;;;;;;;;;;;;;;;;;;5049663;28;19924;-73
2022/01/03 13:54:06;;;;;;;;;;;;;;;;;;5050153;28;19931;-74
2022/01/03 13:56:33;;;;;;;;;;;;;;;;;;5051692;28;20240;-74
2022/01/03 13:59:00;;;;;;;;;;;;;;;;;;5050048;28;20749;-74
2022/01/03 14:01:27;;;;;;;;;;;;;;;;;;5050033;28;19925;-74
2022/01/03 14:03:54;;;;;;;;;;;;;;;;;;5051031;28;19928;-73
2022/01/03 14:06:22;;;;;;;;;;;;;;;;;;5044454;28;19929;-77
2022/01/03 14:08:52;;;;;;;;;;;;;;;;;;5048066;28;19933;-75
2022/01/03 14:11:19;;;;;;;;;;;;;;;;;;5042927;28;19925;-75
2022/01/03 14:13:46;;;;;;;;;;;;;;;;;;5045474;28;19924;-75
2022/01/03 14:16:13;;;;;;;;;;;;;;;;;;5040781;28;20271;-76
2022/01/03 14:18:40;;;;;;;;;;;;;;;;;;5042830;28;20019;-76
2022/01/03 14:21:07;;;;;;;;;;;;;;;;;;5046807;28;19972;-75
2022/01/03 14:23:34;;;;;;;;;;;;;;;;;;5043843;28;19951;-76
2022/01/03 14:26:01;;;;;;;;;;;;;;;;;;5044229;28;19935;-77
2022/01/03 14:28:28;;;;;;;;;;;;;;;;;;5048389;28;19929;-77
2022/01/03 14:30:55;;;;;;;;;;;;;;;;;;5045458;28;20011;-77
2022/01/03 14:33:22;;;;;;;;;;;;;;;;;;5044473;28;19929;-77
2022/01/03 14:35:49;;;;;;;;;;;;;;;;;;5043764;28;19925;-75
2022/01/03 14:38:17;;;;;;;;;;;;;;;;;;5043705;28;19947;-75
2022/01/03 14:40:44;;;;;;;;;;;;;;;;;;5045135;28;19998;-77
2022/01/03 14:43:11;;;;;;;;;;;;;;;;;;5045624;28;19929;-77
2022/01/03 14:45:39;;;;;;;;;;;;;;;;;;5044828;28;19925;-75
2022/01/03 14:48:06;;;;;;;;;;;;;;;;;;5045662;28;19929;-77
2022/01/03 14:50:35;;;;;;;;;;;;;;;;;;5044760;28;19929;-76
2022/01/03 14:53:02;;;;;;;;;;;;;;;;;;5045952;28;19932;-77
2022/01/03 14:55:29;;;;;;;;;;;;;;;;;;5044692;28;19929;-76
2022/01/03 14:57:56;;;;;;;;;;;;;;;;;;5041802;28;19925;-76
2022/01/03 15:00:23;;;;;;;;;;;;;;;;;;5045665;28;19929;-75
2022/01/03 15:02:50;;;;;;;;;;;;;;;;;;5042952;28;19933;-77
2022/01/03 15:05:17;;;;;;;;;;;;;;;;;;5045551;28;20379;-75
2022/01/03 15:07:44;;;;;;;;;;;;;;;;;;5045068;28;19925;-76
2022/01/03 15:10:11;;;;;;;;;;;;;;;;;;5042882;28;19929;-75
2022/01/03 15:12:38;;;;;;;;;;;;;;;;;;5045443;28;19925;-75
2022/01/03 15:15:06;;;;;;;;;;;;;;;;;;5039757;28;20157;-76
2022/01/03 15:17:33;;;;;;;;;;;;;;;;;;5044911;28;20440;-76
2022/01/03 15:20:00;;;;;;;;;;;;;;;;;;5040466;28;19933;-74
2022/01/03 15:22:27;;;;;;;;;;;;;;;;;;5037822;28;20133;-74
2022/01/03 15:24:55;;;;;;;;;;;;;;;;;;5039504;28;20007;-73
2022/01/03 15:27:22;;;;;;;;;;;;;;;;;;5043645;28;19924;-75
2022/01/03 15:29:51;;;;;;;;;;;;;;;;;;5047079;28;20601;-72
2022/01/03 15:32:18;;;;;;;;;;;;;;;;;;5047128;28;19972;-71
2022/01/03 15:34:45;;;;;;;;;;;;;;;;;;5047659;28;19994;-72
2022/01/03 15:37:12;;;;;;;;;;;;;;;;;;5047586;28;20023;-72
2022/01/03 15:39:40;;;;;;;;;;;;;;;;;;5046866;28;20024;-72
2022/01/03 15:42:07;;;;;;;;;;;;;;;;;;5047093;28;19925;-72
2022/01/03 15:44:34;;;;;;;;;;;;;;;;;;5050090;28;20359;-72
2022/01/03 15:47:01;;;;;;;;;;;;;;;;;;5048537;28;19935;-72
2022/01/03 15:49:28;;;;;;;;;;;;;;;;;;5047172;28;20009;-73
2022/01/03 15:51:55;;;;;;;;;;;;;;;;;;5045289;28;20299;-73
2022/01/03 15:57:06;;;;;;;;;;;;;;;;;;5047031;28;19927;-73
2022/01/03 15:59:34;;;;;;;;;;;;;;;;;;5042435;28;20673;-74
2022/01/03 16:02:01;;;;;;;;;;;;;;;;;;5047366;28;20378;-72
2022/01/03 16:04:28;;;;;;;;;;;;;;;;;;5045470;28;20299;-71
2022/01/03 16:06:55;;;;;;;;;;;;;;;;;;5049518;28;19960;-70
2022/01/03 16:09:22;;;;;;;;;;;;;;;;;;5044072;28;19925;-69
2022/01/03 16:11:49;;;;;;;;;;;;;;;;;;5045029;28;19932;-71
2022/01/03 16:14:19;;;;;;;;;;;;;;;;;;5043089;28;20007;-71
2022/01/03 16:16:46;;;;;;;;;;;;;;;;;;5049522;28;20197;-73
2022/01/03 16:19:13;;;;;;;;;;;;;;;;;;5048748;28;19925;-74
2022/01/03 16:21:43;;;;;;;;;;;;;;;;;;5042904;28;20019;-72
2022/01/03 16:24:10;;;;;;;;;;;;;;;;;;5045189;28;20339;-73
2022/01/03 16:26:37;;;;;;;;;;;;;;;;;;5044159;28;19925;-72
2022/01/03 16:29:04;;;;;;;;;;;;;;;;;;5046185;28;19924;-73
2022/01/03 16:31:31;;;;;;;;;;;;;;;;;;5048650;28;19925;-74
2022/01/03 16:33:58;;;;;;;;;;;;;;;;;;5045149;28;19933;-73
2022/01/03 16:36:25;;;;;;;;;;;;;;;;;;5044246;28;19928;-74
2022/01/03 16:38:53;;;;;;;;;;;;;;;;;;5045422;28;20413;-74
2022/01/03 16:41:20;;;;;;;;;;;;;;;;;;5047196;28;19943;-72
2022/01/03 16:43:47;;;;;;;;;;;;;;;;;;5046341;28;20074;-72
2022/01/03 16:46:14;;;;;;;;;;;;;;;;;;5047687;28;19925;-72
2022/01/03 16:48:41;;;;;;;;;;;;;;;;;;5045633;28;19931;-74
2022/01/03 16:51:08;;;;;;;;;;;;;;;;;;5046459;28;19931;-74
2022/01/03 16:53:43;;;;;;;;;;;;;;;;;;5047340;28;19929;-74
2022/01/03 16:56:10;;;;;;;;;;;;;;;;;;5044980;28;20323;-73
2022/01/03 16:58:40;;;;;;;;;;;;;;;;;;5046456;28;19925;-74
2022/01/03 17:01:07;;;;;;;;;;;;;;;;;;5045896;28;19925;-74
2022/01/03 17:03:35;;;;;;;;;;;;;;;;;;5042182;28;20357;-73
2022/01/03 17:06:02;;;;;;;;;;;;;;;;;;5045251;28;19935;-74